Home   Weather   France   Aix-en-Provence   Past weeks
Flag for France

Past Weather in Aix-en-Provence, Bouches-du-Rhône, France — Yesterday and Last 2 Weeks

Currently: 52 °F. Clear. (Weather station: Marseille / Marignane, France). See more current weather

Past Weather in Aix-en-Provence — Graph

°F

Aix-en-Provence Temperature Yesterday

Maximum temperature yesterday: 77 °F (at 4:00 pm)
Minimum temperature yesterday: 52 °F (at 3:30 am)
Average temperature yesterday: 63 °F

High & Low Weather Summary for the Past Weeks

 TemperatureHumidityPressure
High79 °F (Apr 8, 2:00 pm)94% (Mar 31, 8:00 am)30.39 "Hg (Mar 31, 8:00 am)
Low43 °F (Apr 2, 5:00 am)21% (Apr 8, 6:30 pm)29.42 "Hg (Mar 30, 5:00 am)
Average61 °F64%30.04 "Hg
* Reported Mar 30 5:00 am — Apr 14 6:00 am, Aix-en-Provence. Weather by CustomWeather, © 2024

Note: Actual official high and low records may vary slightly from our data, if they occured in-between our weather recording intervals... More about our weather records

Aix-en-Provence Weather History for the Previous 24 Hours

Scroll right to see more
 ConditionsComfort  
Time TempWeatherWind HumidityBarometerVisibility
6:00 am
Sun, Apr 14
52 °FClear.6 mph88%30.24 "Hg10 mi
5:30 am55 °FClear.No wind77%30.24 "Hg10 mi
5:00 am54 °FClear.3 mph88%30.27 "Hg10 mi
4:00 am54 °FClear.1 mph88%30.27 "Hg10 mi
3:30 am57 °FClear.1 mph82%30.27 "Hg10 mi
3:00 am55 °FClear.6 mph82%30.27 "Hg10 mi
2:30 am55 °FClear.6 mph82%30.27 "Hg10 mi
2:00 am55 °FClear.6 mph82%30.30 "Hg10 mi
1:30 am57 °FClear.5 mph77%30.30 "Hg10 mi
1:00 am57 °FClear.6 mph77%30.30 "Hg10 mi
12:30 am61 °FClear.2 mph77%30.30 "Hg10 mi
12:00 am59 °FClear.No wind72%30.30 "Hg10 mi
11:30 pm
Sat, Apr 13
61 °FClear.No wind72%30.30 "Hg10 mi
11:00 pm61 °FClear.2 mph72%30.30 "Hg10 mi
10:30 pm61 °FClear.2 mph72%30.30 "Hg10 mi
10:00 pm64 °FPassing clouds.3 mph68%30.30 "HgN/A
9:00 pm66 °FClear.3 mph60%30.27 "Hg10 mi
8:30 pm68 °FClear.6 mph56%30.27 "Hg10 mi
8:00 pm70 °FSunny.8 mph53%30.27 "Hg10 mi
7:30 pm70 °FSunny.8 mph53%30.27 "Hg10 mi
7:00 pm72 °FSunny.8 mph53%30.27 "Hg10 mi
6:30 pm72 °FSunny.13 mph53%30.27 "Hg10 mi
6:00 pm75 °FSunny.10 mph47%30.27 "Hg10 mi
5:30 pm77 °FSunny.10 mph44%30.27 "Hg10 mi
5:00 pm75 °FSunny.12 mph47%30.27 "Hg10 mi
4:00 pm77 °FSunny.10 mph51%30.27 "Hg10 mi
3:30 pm75 °FPassing clouds.8 mph57%30.27 "HgN/A
3:00 pm73 °FSunny.6 mph50%30.30 "Hg10 mi
2:30 pm75 °FSunny.8 mph54%30.30 "Hg10 mi
2:00 pm75 °FSunny.6 mph54%30.30 "Hg10 mi
1:30 pm73 °FPassing clouds.5 mph53%30.30 "HgN/A
1:00 pm73 °FSunny.3 mph50%30.33 "Hg10 mi
12:30 pm72 °FSunny.3 mph53%30.33 "Hg10 mi
12:00 pm70 °FSunny.5 mph57%30.33 "Hg10 mi
11:30 am68 °FSunny.3 mph69%30.33 "Hg10 mi
11:00 am64 °FSunny.3 mph64%30.33 "Hg10 mi
10:30 am64 °FSunny.5 mph68%30.33 "Hg10 mi
10:00 am63 °FSunny.3 mph73%30.33 "Hg10 mi
9:00 am61 °FSunny.1 mph77%30.30 "Hg10 mi
8:30 am59 °FSunny.No wind82%30.30 "Hg10 mi
8:00 am54 °FSunny.2 mph88%30.30 "Hg10 mi
7:30 am52 °FSunny.5 mph82%30.30 "Hg10 mi
7:00 am52 °FSunny.3 mph82%30.30 "Hg10 mi
Weather by CustomWeather, © 2024

See weather overview